createdAt,value
2018-10-17T00:06:02.481Z,0.06
2018-10-17T00:16:03.667Z,0.01
2018-10-17T00:26:02.678Z,0.02
2018-10-17T00:36:02.615Z,0.00
2018-10-17T00:46:02.603Z,0.00
2018-10-17T00:56:02.646Z,0.01
2018-10-17T01:06:02.551Z,0.00
2018-10-17T01:16:02.651Z,0.00
2018-10-17T01:26:02.684Z,0.00
2018-10-17T01:36:02.588Z,0.02
2018-10-17T01:46:02.734Z,0.15
2018-10-17T01:56:02.717Z,0.42
2018-10-17T02:06:02.561Z,0.71
2018-10-17T02:16:03.485Z,0.67
2018-10-17T02:26:02.851Z,0.24
2018-10-17T02:36:02.573Z,0.05
2018-10-17T02:46:02.632Z,0.45
2018-10-17T02:56:02.608Z,0.15
2018-10-17T03:06:02.826Z,0.44
2018-10-17T03:16:02.524Z,0.23
2018-10-17T03:26:02.591Z,0.17
2018-10-17T03:36:02.651Z,0.25
2018-10-17T03:46:02.745Z,0.29
2018-10-17T03:56:02.568Z,0.16
2018-10-17T04:06:02.584Z,0.02
2018-10-17T04:16:02.550Z,0.20
2018-10-17T04:26:02.558Z,0.22
2018-10-17T04:36:02.676Z,0.01
2018-10-17T04:46:02.581Z,0.22
2018-10-17T04:56:02.598Z,0.19
2018-10-17T05:06:03.172Z,0.20
2018-10-17T05:16:02.724Z,0.11
2018-10-17T05:26:02.551Z,0.18
2018-10-17T05:36:02.529Z,0.02
2018-10-17T05:46:02.602Z,0.05
2018-10-17T05:56:02.518Z,0.03
2018-10-17T06:06:02.623Z,0.01
2018-10-17T06:16:02.937Z,0.00
2018-10-17T06:26:02.541Z,0.04
2018-10-17T06:36:02.694Z,0.00
2018-10-17T06:46:02.649Z,0.00
2018-10-17T06:56:02.612Z,0.00
2018-10-17T07:06:02.701Z,0.00
2018-10-17T07:16:02.533Z,0.01
2018-10-17T07:26:02.532Z,0.00
2018-10-17T07:36:02.594Z,0.00
2018-10-17T07:46:03.239Z,0.05
2018-10-17T07:56:02.548Z,0.24
2018-10-17T08:06:03.632Z,0.17
2018-10-17T08:16:02.639Z,0.62
2018-10-17T08:26:02.683Z,0.69
2018-10-17T08:36:02.730Z,0.62
2018-10-17T08:46:02.635Z,0.47
2018-10-17T08:56:02.635Z,1.01
2018-10-17T09:06:02.750Z,0.43
2018-10-17T09:16:02.816Z,0.25
2018-10-17T09:26:02.945Z,0.55
2018-10-17T09:36:02.769Z,0.36
2018-10-17T09:46:04.954Z,0.25
2018-10-17T09:56:02.756Z,0.41
2018-10-17T10:06:03.480Z,0.47
2018-10-17T10:16:02.876Z,0.54
2018-10-17T10:26:02.854Z,0.92
2018-10-17T10:36:02.657Z,0.44
2018-10-17T10:46:03.359Z,0.35
2018-10-17T10:56:02.736Z,0.73
2018-10-17T11:06:02.894Z,0.75
2018-10-17T11:16:03.440Z,0.57
2018-10-17T11:26:03.414Z,1.11
2018-10-17T11:36:02.633Z,0.65
2018-10-17T11:46:02.673Z,0.54
2018-10-17T11:56:02.729Z,0.44
2018-10-17T12:06:02.653Z,0.28
2018-10-17T12:16:02.725Z,0.71
2018-10-17T12:36:09.053Z,0.45
2018-10-17T12:46:08.515Z,0.46
2018-10-17T12:56:08.628Z,0.50
2018-10-17T13:06:08.561Z,0.62
2018-10-17T13:16:08.556Z,0.68
2018-10-17T13:26:09.252Z,0.31
2018-10-17T13:36:08.609Z,0.33
2018-10-17T13:46:09.366Z,0.59
2018-10-17T13:56:09.417Z,0.43
2018-10-17T14:06:08.595Z,0.33
2018-10-17T14:16:08.665Z,0.56
2018-10-17T14:26:08.952Z,0.42
2018-10-17T14:36:09.062Z,0.50
2018-10-17T14:46:09.684Z,0.30
2018-10-17T14:56:08.538Z,0.44
2018-10-17T15:06:08.918Z,0.42
2018-10-17T15:16:08.627Z,0.30
2018-10-17T15:26:08.574Z,0.37
2018-10-17T15:36:08.649Z,0.21
2018-10-17T15:46:08.582Z,0.25
2018-10-17T15:56:08.561Z,0.21
2018-10-17T16:06:09.034Z,0.09
2018-10-17T16:16:08.764Z,0.05
2018-10-17T16:26:08.657Z,0.12
2018-10-17T16:36:08.853Z,0.02
2018-10-17T16:46:08.634Z,0.00
2018-10-17T16:56:08.799Z,0.00
2018-10-17T17:06:09.698Z,0.00
2018-10-17T17:16:08.701Z,0.00
2018-10-17T17:26:08.792Z,0.00
2018-10-17T17:36:09.539Z,0.00
2018-10-17T17:46:08.635Z,0.01
2018-10-17T17:56:08.714Z,0.00
2018-10-17T18:06:08.647Z,0.01
2018-10-17T18:16:08.925Z,0.04
2018-10-17T18:26:08.677Z,0.00
2018-10-17T18:36:10.503Z,0.00
2018-10-17T18:46:08.669Z,0.00
2018-10-17T18:56:08.689Z,0.00
2018-10-17T19:06:09.611Z,0.06
2018-10-17T19:16:09.030Z,0.00
2018-10-17T19:26:08.564Z,0.00
2018-10-17T19:36:09.404Z,0.00
2018-10-17T19:46:08.673Z,0.00
2018-10-17T19:56:08.837Z,0.00
2018-10-17T20:06:08.597Z,0.00
2018-10-17T20:16:08.610Z,0.00
2018-10-17T20:26:08.676Z,0.00
2018-10-17T20:36:08.707Z,0.00
2018-10-17T20:46:08.525Z,0.01
2018-10-17T20:56:08.713Z,0.00
2018-10-17T21:06:08.602Z,0.00
2018-10-17T21:16:08.636Z,0.02
2018-10-17T21:26:10.388Z,0.02
2018-10-17T21:36:09.551Z,0.00
2018-10-17T21:46:08.686Z,0.00
2018-10-17T21:56:08.785Z,0.00
2018-10-17T22:06:08.693Z,0.00
2018-10-17T22:16:08.703Z,0.00
2018-10-17T22:26:09.534Z,0.00
2018-10-17T22:36:08.611Z,0.00
2018-10-17T22:46:08.650Z,0.00
2018-10-17T22:56:08.711Z,0.00
2018-10-17T23:06:08.853Z,0.00
2018-10-17T23:16:09.138Z,0.00
2018-10-17T23:26:08.735Z,0.00
2018-10-17T23:36:08.595Z,0.00
2018-10-17T23:46:08.634Z,0.00
2018-10-17T23:56:08.788Z,0.01
